KSTJ/STJ METAR and TAF weather

Enter ICAO airport designator
Station Type Date Time Source
KSTJ METAR 2019/12/09 21:53 UTC NOAA

KSTJ 092153Z AUTO 31019G29KT 10SM CLR M03/M11 A2998 RMK AO2 PK WND 32029/2145 SLP159 T10331106


Station Type Date Time Source
KSTJ Decoded METAR 2019/12/09 21:53 UTC NOAA

ROSECRANS MEMORIAL AIRPORT, MO, United States (KSTJ) 39-46N 94-55W 247M
Dec 09, 2019 - 04:53 PM EST / 2019.12.09 2153 UTC
Wind: from the NW (310 degrees) at 22 MPH (19 KT) gusting to 33 MPH (29 KT):0
Visibility: 10 mile(s):0
Sky conditions: clear
Temperature: 26.1 F (-3.3 C)
Windchill: 12 F (-11 C):1
Dew Point: 12.9 F (-10.6 C)
Relative Humidity: 56%
Pressure (altimeter): 29.98 in. Hg (1015 hPa)
ob: KSTJ 092153Z AUTO 31019G29KT 10SM CLR M03/M11 A2998 RMK AO2 PK WND 32029/2145 SLP159 T10331106
cycle: 22

Station Type Date Time Source
KSTJ TAF 2019/12/09 18:28 UTC NOAA

TAF KSTJ 091726Z 0918/1018 33020G34KT P6SM SCT020 BKN100
FM092300 29007KT P6SM FEW250

Example: see airport list